Time;durP1;ratioP1;P1;durP2;ratioP2;P2;SDS_P1;SDS_P2;PMS_P1;PMS_P2;Temp;Humidity;BMP_temperature;BMP_pressure;BME280_temperature;BME280_humidity;BME280_pressure;Samples;Min_cycle;Max_cycle;Signal;HPM_P1;HPM_P2
2021/08/13 00:02:22;;;;;;;7.10;6.40;;;;;;;20.58;67.60;101273.22;4952354;28;20047;-86
2021/08/13 00:04:49;;;;;;;8.77;6.68;;;;;;;20.54;67.68;101272.47;4936223;29;20123;-85
2021/08/13 00:07:32;;;;;;;7.45;6.20;;;;;;;20.53;67.80;101268.09;4950298;28;20098;-84
2021/08/13 00:10:00;;;;;;;10.13;7.20;;;;;;;20.53;67.47;101270.75;4949796;28;20067;-86
2021/08/13 00:12:33;;;;;;;10.13;5.40;;;;;;;20.52;67.98;101278.78;4951779;28;20051;-84
2021/08/13 00:15:00;;;;;;;12.90;8.07;;;;;;;20.48;68.03;101278.91;4948767;28;20055;-87
2021/08/13 00:17:28;;;;;;;9.55;7.35;;;;;;;20.47;68.23;101284.31;4935822;28;20051;-83
2021/08/13 00:19:56;;;;;;;7.88;6.93;;;;;;;20.44;68.16;101276.44;4947001;28;20051;-84
2021/08/13 00:22:23;;;;;;;10.88;7.00;;;;;;;20.43;68.53;101285.38;4953293;28;20043;-83
2021/08/13 00:24:53;;;;;;;11.02;7.10;;;;;;;20.41;68.46;101287.22;4942105;29;20058;-84
2021/08/13 00:27:20;;;;;;;8.52;5.95;;;;;;;20.39;68.29;101281.06;4954070;28;20055;-83
2021/08/13 00:29:47;;;;;;;9.05;7.22;;;;;;;20.36;68.46;101279.41;4954928;28;20081;-87
2021/08/13 00:32:15;;;;;;;9.38;7.25;;;;;;;20.35;68.61;101295.41;4943984;28;20805;-85
2021/08/13 00:34:42;;;;;;;8.20;6.93;;;;;;;20.29;68.99;101294.75;4957922;28;20160;-84
2021/08/13 00:37:09;;;;;;;11.27;8.45;;;;;;;20.27;69.10;101301.03;4964379;28;20543;-82
2021/08/13 00:39:36;;;;;;;9.15;7.60;;;;;;;20.22;69.07;101295.91;4950856;28;20490;-86
2021/08/13 00:42:03;;;;;;;9.85;7.22;;;;;;;20.18;69.44;101296.97;4938760;28;20047;-84
2021/08/13 00:44:31;;;;;;;16.00;7.63;;;;;;;20.15;69.38;101292.63;4962730;28;20050;-82
2021/08/13 00:47:00;;;;;;;9.70;7.07;;;;;;;20.12;69.78;101305.19;4955284;28;20128;-83
2021/08/13 00:49:26;;;;;;;9.07;6.15;;;;;;;20.11;69.69;101300.78;4963786;28;20063;-83
2021/08/13 00:51:53;;;;;;;18.38;7.32;;;;;;;20.08;69.81;101301.75;4966461;28;20035;-84
2021/08/13 00:54:21;;;;;;;7.07;6.22;;;;;;;20.05;70.05;101299.25;4960193;28;20049;-85
2021/08/13 00:56:52;;;;;;;8.68;7.38;;;;;;;20.02;70.13;101299.34;4957037;28;20048;-85
2021/08/13 00:59:18;;;;;;;7.70;6.75;;;;;;;19.97;70.61;101302.19;4941249;28;20057;-86
2021/08/13 01:01:45;;;;;;;9.75;7.40;;;;;;;19.92;71.08;101300.59;4945680;28;20717;-86
2021/08/13 01:04:13;;;;;;;8.55;6.63;;;;;;;19.82;71.33;101297.44;4934376;28;20047;-83
2021/08/13 01:06:39;;;;;;;8.60;7.03;;;;;;;19.74;71.91;101287.06;4932468;28;20089;-86
2021/08/13 01:09:08;;;;;;;12.60;7.90;;;;;;;19.63;72.69;101289.25;4948893;28;20085;-85
2021/08/13 01:11:53;;;;;;;10.32;8.02;;;;;;;19.50;72.98;101295.03;4935882;28;20043;-82
2021/08/13 01:14:42;;;;;;;9.95;7.68;;;;;;;19.36;73.85;101289.34;4930318;28;20042;-83
2021/08/13 01:17:11;;;;;;;12.05;7.32;;;;;;;19.24;74.48;101289.75;4952681;28;20059;-87
2021/08/13 01:19:59;;;;;;;9.13;8.20;;;;;;;19.13;75.94;101290.13;4947303;28;20613;-86
2021/08/13 01:22:31;;;;;;;8.25;6.93;;;;;;;19.05;75.57;101287.75;4965331;28;20046;-86
2021/08/13 01:25:03;;;;;;;9.02;8.15;;;;;;;18.98;76.18;101299.47;4963236;28;20048;-85
2021/08/13 01:27:55;;;;;;;10.27;7.03;;;;;;;18.90;76.87;101298.88;4934397;28;20563;-82
2021/08/13 01:30:25;;;;;;;10.45;7.47;;;;;;;18.84;77.20;101287.53;4931591;28;20759;-83
2021/08/13 01:33:11;;;;;;;8.57;7.68;;;;;;;18.83;77.75;101291.09;4949819;28;20047;-84
2021/08/13 01:35:49;;;;;;;10.98;7.60;;;;;;;18.78;77.82;101284.22;4936065;28;20429;-83
2021/08/13 01:38:23;;;;;;;10.40;8.23;;;;;;;18.74;78.13;101282.59;4961242;28;20496;-84
2021/08/13 01:40:53;;;;;;;10.65;8.05;;;;;;;18.68;78.69;101294.25;4963118;28;20426;-86
2021/08/13 01:43:23;;;;;;;10.40;8.48;;;;;;;18.64;78.92;101292.59;4929743;28;20220;-84
2021/08/13 01:45:51;;;;;;;8.57;7.40;;;;;;;18.57;79.15;101299.91;4939852;28;20113;-83
2021/08/13 01:48:21;;;;;;;8.27;7.47;;;;;;;18.51;79.55;101300.09;4963249;28;20306;-85
2021/08/13 01:50:50;;;;;;;9.30;8.40;;;;;;;18.46;79.87;101292.31;4969616;28;20050;-84
2021/08/13 01:53:18;;;;;;;11.85;8.93;;;;;;;18.42;80.12;101290.66;4939189;28;20445;-83
2021/08/13 01:55:46;;;;;;;11.27;8.18;;;;;;;18.40;80.34;101291.63;4946475;28;20552;-83
2021/08/13 01:58:13;;;;;;;12.63;9.20;;;;;;;18.35;80.83;101297.94;4950949;28;20039;-83
2021/08/13 02:00:40;;;;;;;15.45;8.60;;;;;;;18.31;81.41;101304.22;4959253;28;20047;-86
2021/08/13 02:03:08;;;;;;;11.25;8.45;;;;;;;18.26;81.67;101292.91;4947612;28;20622;-84
2021/08/13 02:05:37;;;;;;;13.00;9.55;;;;;;;18.22;82.47;101279.81;4942659;28;20522;-87
2021/08/13 02:08:08;;;;;;;11.30;8.98;;;;;;;18.16;82.75;101281.75;4930231;28;20067;-85
2021/08/13 02:10:38;;;;;;;11.57;9.88;;;;;;;18.08;83.74;101294.34;4932599;28;20067;-83
2021/08/13 02:13:06;;;;;;;11.43;9.32;;;;;;;18.02;84.11;101302.47;4945461;28;20048;-87
2021/08/13 02:15:40;;;;;;;10.30;7.75;;;;;;;17.97;84.79;101299.94;4934240;28;20688;-85
2021/08/13 02:18:30;;;;;;;13.52;8.63;;;;;;;17.90;86.10;101300.16;4934268;28;20054;-85
2021/08/13 02:21:02;;;;;;;11.75;9.00;;;;;;;17.83;85.54;101303.00;4937434;28;20306;-85
2021/08/13 02:23:30;;;;;;;10.90;8.63;;;;;;;17.78;86.13;101304.91;4953490;28;20097;-84
2021/08/13 02:25:57;;;;;;;10.98;8.13;;;;;;;17.72;86.75;101299.78;4937996;28;20043;-85
2021/08/13 02:28:24;;;;;;;16.55;9.35;;;;;;;17.69;87.00;101303.38;4939522;28;20072;-84
2021/08/13 02:30:50;;;;;;;11.32;9.40;;;;;;;17.63;87.35;101298.25;4936668;28;20548;-86
2021/08/13 02:33:20;;;;;;;9.05;8.15;;;;;;;17.61;88.12;101304.50;4951103;28;20478;-85
2021/08/13 02:35:47;;;;;;;10.00;8.40;;;;;;;17.57;88.21;101309.00;4965200;28;20055;-86
2021/08/13 02:38:25;;;;;;;11.82;8.45;;;;;;;17.55;88.79;101300.25;4955181;28;20046;-83
2021/08/13 02:41:02;;;;;;;10.05;8.90;;;;;;;17.53;88.97;101296.78;4950820;28;20041;-85
2021/08/13 02:43:59;;;;;;;10.80;7.90;;;;;;;17.49;89.85;101298.63;4954859;28;20101;-85
2021/08/13 02:46:44;;;;;;;9.98;8.52;;;;;;;17.47;89.51;101299.56;4955739;28;20059;-84
2021/08/13 02:49:16;;;;;;;9.95;8.88;;;;;;;17.44;89.49;101302.31;4968820;28;20154;-83
2021/08/13 02:51:44;;;;;;;11.43;9.13;;;;;;;17.42;89.96;101299.72;4966417;28;20073;-86
2021/08/13 02:54:25;;;;;;;10.30;8.15;;;;;;;17.40;89.97;101296.22;4958849;28;20054;-86
2021/08/13 02:56:55;;;;;;;9.95;8.98;;;;;;;17.39;90.14;101298.94;4970242;28;20042;-84
2021/08/13 02:59:25;;;;;;;10.10;9.13;;;;;;;17.37;90.04;101298.97;4937432;28;20122;-85
2021/08/13 03:01:52;;;;;;;10.05;8.50;;;;;;;17.36;90.68;101297.22;4944171;28;20039;-85
2021/08/13 03:04:22;;;;;;;10.90;9.40;;;;;;;17.35;90.60;101296.38;4949629;28;20046;-87
2021/08/13 03:06:51;;;;;;;9.88;8.73;;;;;;;17.35;90.63;101292.84;4936381;28;20074;-84
2021/08/13 03:09:18;;;;;;;10.40;8.98;;;;;;;17.33;90.72;101289.38;4938146;28;20058;-85
2021/08/13 03:11:47;;;;;;;11.45;8.75;;;;;;;17.32;90.98;101285.84;4962485;28;20071;-82
2021/08/13 03:14:14;;;;;;;13.60;9.50;;;;;;;17.32;90.94;101279.72;4937888;28;20185;-84
2021/08/13 03:16:43;;;;;;;9.93;9.00;;;;;;;17.30;91.10;101282.41;4927450;28;20070;-84
2021/08/13 03:19:11;;;;;;;13.00;9.07;;;;;;;17.27;91.13;101285.09;4936817;28;20047;-83
2021/08/13 03:21:41;;;;;;;14.15;9.93;;;;;;;17.22;90.89;101281.72;4937059;28;20804;-85
2021/08/13 03:24:08;;;;;;;12.25;9.75;;;;;;;17.19;91.30;101280.06;4932218;28;20047;-85
2021/08/13 03:26:35;;;;;;;12.77;10.07;;;;;;;17.17;91.44;101279.22;4936658;28;20150;-85
2021/08/13 03:29:06;;;;;;;10.05;9.05;;;;;;;17.14;91.83;101281.06;4947019;28;20701;-85
2021/08/13 03:31:37;;;;;;;10.63;9.38;;;;;;;17.12;92.17;101281.09;4950077;28;20047;-84
2021/08/13 03:34:11;;;;;;;11.27;8.77;;;;;;;17.11;92.14;101282.00;4950206;28;20231;-84
2021/08/13 03:39:20;;;;;;;8.68;7.70;;;;;;;17.03;92.24;101276.91;4950601;28;20599;-86
2021/08/13 03:41:47;;;;;;;10.07;8.30;;;;;;;17.00;92.30;101274.38;4934276;28;20047;-83
2021/08/13 03:44:13;;;;;;;9.93;8.52;;;;;;;16.98;92.38;101277.94;4950428;28;20042;-87
2021/08/13 03:46:48;;;;;;;10.20;7.93;;;;;;;16.96;92.33;101285.03;4938024;28;20047;-84
2021/08/13 03:49:15;;;;;;;11.40;8.68;;;;;;;16.94;92.55;101292.16;4935494;28;20076;-84
2021/08/13 03:51:42;;;;;;;9.48;8.25;;;;;;;16.92;92.39;101291.31;4948271;28;21351;-86
2021/08/13 03:54:11;;;;;;;10.27;9.15;;;;;;;16.91;92.50;101294.88;4950567;28;20043;-86
2021/08/13 03:56:37;;;;;;;12.73;9.73;;;;;;;16.89;92.38;101286.94;4935861;28;20200;-84
2021/08/13 03:59:05;;;;;;;12.20;9.00;;;;;;;16.87;92.55;101294.06;4931562;28;20487;-86
2021/08/13 04:01:32;;;;;;;11.75;9.18;;;;;;;16.86;92.81;101298.47;4949003;28;20209;-85
2021/08/13 04:04:00;;;;;;;12.38;8.73;;;;;;;16.87;92.76;101292.28;4965851;28;20194;-84
2021/08/13 04:06:27;;;;;;;11.57;9.48;;;;;;;16.89;92.85;101299.31;4934689;28;20053;-84
2021/08/13 04:08:54;;;;;;;10.43;8.50;;;;;;;16.89;92.70;101297.53;4935807;28;20462;-84
2021/08/13 04:11:20;;;;;;;9.75;8.77;;;;;;;16.92;93.00;101299.25;4931419;28;20099;-85
2021/08/13 04:13:47;;;;;;;11.73;8.65;;;;;;;16.95;92.70;101300.06;4966171;28;20566;-86
2021/08/13 04:16:16;;;;;;;11.05;8.50;;;;;;;16.99;92.64;101301.72;4922918;28;20066;-85
2021/08/13 04:18:43;;;;;;;15.40;10.15;;;;;;;17.05;92.22;101295.38;4943048;28;20055;-84
2021/08/13 04:21:12;;;;;;;14.10;10.48;;;;;;;17.08;91.83;101295.31;4931041;28;20047;-85
2021/08/13 04:23:38;;;;;;;11.73;9.50;;;;;;;17.12;91.82;101299.63;4948691;28;20145;-86
2021/08/13 04:26:05;;;;;;;18.25;9.27;;;;;;;17.15;91.62;101290.75;4948709;28;20821;-85
2021/08/13 04:28:31;;;;;;;11.98;8.52;;;;;;;17.18;91.32;101304.75;4929143;28;20062;-84
2021/08/13 04:30:58;;;;;;;11.75;9.25;;;;;;;17.20;91.09;101304.72;4945148;28;20635;-85
2021/08/13 04:33:25;;;;;;;13.30;8.32;;;;;;;17.22;90.81;101294.09;4927300;28;20439;-84
2021/08/13 04:35:52;;;;;;;11.45;9.05;;;;;;;17.20;90.64;101291.50;4931091;28;20047;-83
2021/08/13 04:38:18;;;;;;;11.73;9.80;;;;;;;17.17;90.88;101287.16;4931152;28;20083;-86
2021/08/13 04:40:46;;;;;;;9.63;8.48;;;;;;;17.18;90.74;101293.28;4942012;28;20058;-86
2021/08/13 04:43:13;;;;;;;9.68;8.32;;;;;;;17.17;90.41;101287.16;4932979;28;20142;-86
2021/08/13 04:45:39;;;;;;;13.57;7.95;;;;;;;17.17;90.44;101286.28;4938937;28;20034;-86
2021/08/13 04:48:09;;;;;;;12.60;7.70;;;;;;;17.19;90.13;101288.00;4978408;28;20055;-85
2021/08/13 04:50:36;;;;;;;13.50;8.75;;;;;;;17.22;89.71;101287.00;4963715;28;20145;-83
2021/08/13 04:53:03;;;;;;;11.35;8.52;;;;;;;17.25;89.47;101284.31;4950963;28;20295;-84
2021/08/13 04:55:30;;;;;;;13.85;8.18;;;;;;;17.28;89.22;101288.63;4968439;28;22858;-83
2021/08/13 04:57:57;;;;;;;10.15;7.80;;;;;;;17.30;89.27;101292.97;4963678;28;20058;-82
2021/08/13 05:00:24;;;;;;;11.43;8.82;;;;;;;17.30;88.71;101294.75;4950186;28;20062;-85
2021/08/13 05:02:50;;;;;;;14.38;9.68;;;;;;;17.30;88.85;101298.28;4941428;28;20407;-83
2021/08/13 05:05:18;;;;;;;9.15;7.45;;;;;;;17.28;88.60;101293.94;4929888;28;20047;-83
2021/08/13 05:07:45;;;;;;;11.32;8.32;;;;;;;17.27;88.76;101300.13;4931315;28;20043;-84
2021/08/13 05:10:18;;;;;;;13.40;8.60;;;;;;;17.24;88.90;101298.44;4928135;28;20068;-83
2021/08/13 05:12:45;;;;;;;10.23;8.48;;;;;;;17.23;88.90;101294.03;4917748;28;20099;-85
2021/08/13 05:15:13;;;;;;;7.47;6.63;;;;;;;17.22;88.83;101299.38;4926827;28;20055;-86
2021/08/13 05:17:40;;;;;;;11.52;8.20;;;;;;;17.22;88.77;101291.44;4947662;28;20063;-86
2021/08/13 05:20:08;;;;;;;13.35;8.65;;;;;;;17.23;88.74;101301.97;4929204;28;20109;-87
2021/08/13 05:22:35;;;;;;;10.93;8.18;;;;;;;17.24;88.89;101297.56;4932669;28;20067;-83
2021/08/13 05:25:05;;;;;;;11.55;7.53;;;;;;;17.27;88.91;101302.78;4934045;28;20047;-84
2021/08/13 05:27:32;;;;;;;12.07;8.13;;;;;;;17.30;88.68;101302.69;4946513;28;20047;-83
2021/08/13 05:30:10;;;;;;;12.40;8.35;;;;;;;17.36;88.38;101299.88;4936566;28;20051;-84
2021/08/13 05:32:41;;;;;;;13.27;7.68;;;;;;;17.44;88.09;101302.31;4943490;28;20110;-84
2021/08/13 05:35:13;;;;;;;11.70;7.45;;;;;;;17.51;87.61;101302.13;4964982;28;20051;-86
2021/08/13 05:37:44;;;;;;;8.05;7.00;;;;;;;17.59;87.32;101296.59;4932864;28;20501;-86
2021/08/13 05:40:11;;;;;;;9.90;7.30;;;;;;;17.67;86.96;101293.75;4917585;28;20142;-86
2021/08/13 05:42:39;;;;;;;12.52;7.40;;;;;;;17.76;86.50;101304.06;4947042;28;20158;-84
2021/08/13 05:45:09;;;;;;;12.93;8.05;;;;;;;17.82;85.86;101295.97;4932585;28;20268;-83
2021/08/13 05:47:38;;;;;;;7.90;7.03;;;;;;;17.90;85.29;101302.78;4949289;28;20104;-83
2021/08/13 05:50:08;;;;;;;8.95;6.93;;;;;;;17.96;85.55;101303.50;4947350;28;20474;-85
2021/08/13 05:52:36;;;;;;;7.25;6.57;;;;;;;18.02;85.03;101302.47;4962866;28;20055;-85
2021/08/13 05:55:04;;;;;;;11.02;7.55;;;;;;;18.09;84.85;101303.16;4954362;28;20058;-83
2021/08/13 05:57:30;;;;;;;8.75;6.85;;;;;;;18.17;84.41;101309.97;4960980;28;20049;-82
2021/08/13 05:59:58;;;;;;;9.20;7.20;;;;;;;18.25;83.86;101306.22;4950735;28;20058;-83
2021/08/13 06:02:24;;;;;;;8.95;7.05;;;;;;;18.32;83.78;101307.78;4960473;28;20131;-85
2021/08/13 06:05:01;;;;;;;;;;;;;;;;;;;;;
2021/08/13 06:07:28;;;;;;;7.47;6.72;;;;;;;18.48;82.97;101300.19;4961769;28;20066;-84
2021/08/13 06:09:55;;;;;;;12.73;7.30;;;;;;;18.57;82.77;101305.19;4935850;28;20888;-84
2021/08/13 06:12:24;;;;;;;12.35;7.32;;;;;;;18.68;82.58;101310.16;4934804;28;20074;-82
2021/08/13 06:14:50;;;;;;;10.20;7.13;;;;;;;18.77;82.16;101303.69;4947092;28;20082;-87
2021/08/13 06:17:18;;;;;;;10.88;7.18;;;;;;;18.84;81.36;101300.78;4933383;28;20047;-82
2021/08/13 06:19:45;;;;;;;11.52;7.68;;;;;;;18.97;81.05;101297.78;4930712;28;20044;-82
2021/08/13 06:22:11;;;;;;;6.63;5.85;;;;;;;19.11;80.53;101302.59;4930540;28;20047;-84
2021/08/13 06:24:38;;;;;;;8.60;6.60;;;;;;;19.31;79.63;101307.22;4926425;28;20138;-83
2021/08/13 06:27:04;;;;;;;7.05;6.22;;;;;;;19.50;79.02;101300.34;4922015;28;20059;-85
2021/08/13 06:29:32;;;;;;;7.95;6.97;;;;;;;19.70;77.87;101297.84;4925522;28;20150;-84
2021/08/13 06:31:59;;;;;;;7.28;6.30;;;;;;;19.77;77.43;101300.22;4949951;28;20078;-85
2021/08/13 06:34:26;;;;;;;7.05;5.72;;;;;;;19.77;77.52;101299.38;4942910;28;20065;-83
2021/08/13 06:36:53;;;;;;;11.27;6.47;;;;;;;19.75;77.01;101304.75;4955749;28;20047;-86
2021/08/13 06:39:20;;;;;;;9.55;6.80;;;;;;;19.75;77.27;101294.13;4945712;28;20071;-87
2021/08/13 06:41:47;;;;;;;9.77;7.57;;;;;;;19.77;77.24;101292.25;4966392;28;20050;-86
2021/08/13 06:44:14;;;;;;;6.05;5.45;;;;;;;19.85;76.90;101291.16;4950583;28;20886;-83
2021/08/13 06:46:42;;;;;;;15.73;5.95;;;;;;;19.92;76.64;101300.59;4939679;28;20063;-86
2021/08/13 06:49:08;;;;;;;9.40;6.72;;;;;;;20.04;76.07;101302.81;4926794;28;20070;-88
2021/08/13 06:51:35;;;;;;;7.00;5.72;;;;;;;20.20;75.80;101296.91;4942940;28;20050;-84
2021/08/13 06:54:02;;;;;;;6.72;5.75;;;;;;;20.40;74.77;101307.63;4924688;28;20062;-85
2021/08/13 06:56:28;;;;;;;5.60;4.63;;;;;;;20.58;74.06;101307.81;4932796;28;20443;-83
2021/08/13 06:58:56;;;;;;;50.53;11.65;;;;;;;20.78;73.12;101307.91;4929185;28;20071;-84
2021/08/13 07:01:23;;;;;;;6.63;5.85;;;;;;;21.02;72.32;101307.78;4925099;28;20130;-86
2021/08/13 07:03:50;;;;;;;8.80;5.88;;;;;;;21.35;70.98;101304.59;4937583;28;20058;-84
2021/08/13 07:06:17;;;;;;;9.82;5.50;;;;;;;21.79;69.55;101296.44;4949671;28;20149;-87
2021/08/13 07:08:43;;;;;;;7.22;5.25;;;;;;;22.39;67.22;101310.59;4942042;28;20088;-85
2021/08/13 07:11:10;;;;;;;8.25;5.63;;;;;;;22.85;65.43;101310.13;4946341;28;20084;-85
2021/08/13 07:13:36;;;;;;;12.02;6.05;;;;;;;23.12;63.92;101311.41;4939668;28;20232;-88
2021/08/13 07:16:03;;;;;;;6.18;4.95;;;;;;;23.35;63.50;101303.16;4946155;28;20051;-86
2021/08/13 07:18:30;;;;;;;13.10;5.63;;;;;;;23.42;63.09;101297.41;4940426;28;20078;-88
2021/08/13 07:20:56;;;;;;;8.00;5.70;;;;;;;23.66;62.44;101305.06;4945408;28;20055;-87
2021/08/13 07:23:23;;;;;;;7.60;5.72;;;;;;;24.10;61.40;101296.44;4964226;28;20054;-88
2021/08/13 07:25:52;;;;;;;6.80;5.28;;;;;;;24.62;59.58;101297.13;4940956;28;20047;-87
2021/08/13 07:28:18;;;;;;;7.05;5.15;;;;;;;25.05;57.53;101296.44;4950442;28;20399;-85
2021/08/13 07:30:45;;;;;;;7.47;5.10;;;;;;;25.41;55.78;101292.53;4956839;28;20315;-85
2021/08/13 07:33:12;;;;;;;5.50;5.10;;;;;;;25.78;55.00;101297.41;4948163;28;20063;-85
2021/08/13 07:35:45;;;;;;;6.30;4.75;;;;;;;26.21;53.37;101297.38;4934797;28;20059;-86
2021/08/13 07:38:12;;;;;;;8.88;5.93;;;;;;;26.66;51.97;101289.06;4932851;28;20051;-86
2021/08/13 07:40:39;;;;;;;8.43;5.82;;;;;;;27.16;50.75;101289.31;4939721;28;20043;-82
2021/08/13 07:43:07;;;;;;;5.30;4.75;;;;;;;27.64;49.50;101285.97;4924997;28;20055;-84
2021/08/13 07:45:35;;;;;;;8.70;5.35;;;;;;;27.97;48.12;101292.63;4931774;28;20051;-83
2021/08/13 07:48:02;;;;;;;8.32;5.25;;;;;;;28.30;47.68;101297.38;4929747;28;20071;-86
2021/08/13 07:50:29;;;;;;;5.57;5.15;;;;;;;28.63;46.73;101303.03;4934031;28;20079;-83
2021/08/13 07:52:56;;;;;;;5.22;4.72;;;;;;;28.90;46.06;101305.50;4950676;28;20581;-87
2021/08/13 07:55:22;;;;;;;6.75;5.55;;;;;;;29.35;44.90;101310.19;4924026;28;20134;-85
2021/08/13 07:57:50;;;;;;;9.07;6.10;;;;;;;29.75;43.63;101311.56;4932729;28;20051;-84
2021/08/13 08:00:16;;;;;;;7.57;5.07;;;;;;;30.06;43.03;101303.72;4929916;28;20125;-85
2021/08/13 08:02:44;;;;;;;6.30;5.43;;;;;;;30.38;42.08;101309.19;4932273;28;20134;-85
2021/08/13 08:05:14;;;;;;;5.88;5.22;;;;;;;30.52;40.21;101313.47;4947301;28;20054;-84
2021/08/13 08:07:41;;;;;;;6.88;5.03;;;;;;;30.67;40.98;101309.47;4928067;28;20054;-87
2021/08/13 08:10:08;;;;;;;7.32;6.53;;;;;;;30.74;39.57;101311.66;4947619;28;20177;-82
2021/08/13 08:12:35;;;;;;;5.93;5.30;;;;;;;30.74;39.25;101319.75;4941811;28;20058;-85
2021/08/13 08:15:02;;;;;;;6.18;5.60;;;;;;;30.80;38.08;101316.53;4946469;28;20051;-86
2021/08/13 08:17:37;;;;;;;6.70;6.00;;;;;;;30.95;37.59;101317.94;4944883;28;20521;-85
2021/08/13 08:20:08;;;;;;;8.43;6.43;;;;;;;31.15;36.81;101321.66;4950815;28;20055;-84
2021/08/13 08:22:37;;;;;;;6.90;5.85;;;;;;;31.28;36.26;101326.88;4965712;28;20125;-83
2021/08/13 08:25:05;;;;;;;5.32;4.80;;;;;;;31.58;35.42;101327.91;4929523;28;20077;-82
2021/08/13 08:27:32;;;;;;;7.82;5.75;;;;;;;31.81;34.70;101325.03;4936656;28;20489;-85
2021/08/13 08:29:59;;;;;;;7.47;6.78;;;;;;;31.82;34.65;101334.84;4961892;28;20046;-86
2021/08/13 08:32:26;;;;;;;9.07;8.18;;;;;;;31.95;34.34;101321.94;4942870;28;20062;-81
2021/08/13 08:34:53;;;;;;;7.07;6.32;;;;;;;32.23;34.67;101322.19;4929401;28;20083;-82
2021/08/13 08:37:20;;;;;;;5.80;5.07;;;;;;;32.40;33.91;101319.78;4954785;28;20054;-84
2021/08/13 08:39:50;;;;;;;6.40;5.10;;;;;;;32.46;33.68;101325.53;4947161;28;20190;-85
2021/08/13 08:42:21;;;;;;;5.82;5.32;;;;;;;32.74;33.34;101317.56;4940889;28;20074;-86
2021/08/13 08:47:30;;;;;;;6.20;5.07;;;;;;;33.31;32.32;101323.09;4960953;28;20063;-84
2021/08/13 08:49:57;;;;;;;9.02;5.47;;;;;;;33.72;32.03;101322.78;4947201;28;20059;-84
2021/08/13 08:52:27;;;;;;;5.85;5.30;;;;;;;33.95;31.87;101325.16;4949354;28;20050;-85
2021/08/13 08:54:55;;;;;;;5.82;5.30;;;;;;;34.20;31.53;101318.13;4931499;28;20053;-84
2021/08/13 08:57:28;;;;;;;6.63;5.07;;;;;;;34.50;30.85;101318.81;4953695;28;20717;-83
2021/08/13 08:59:57;;;;;;;5.47;4.85;;;;;;;34.37;31.03;101319.19;4948974;28;20512;-84
2021/08/13 09:02:27;;;;;;;4.97;4.57;;;;;;;34.37;30.82;101321.06;4934006;28;20506;-86
2021/08/13 09:04:54;;;;;;;5.50;5.00;;;;;;;34.22;30.25;101318.81;4944302;28;20974;-83
2021/08/13 09:07:23;;;;;;;5.40;4.90;;;;;;;33.60;31.39;101318.56;4932733;28;20043;-84
2021/08/13 09:09:49;;;;;;;5.68;5.18;;;;;;;33.38;31.72;101320.63;4919260;29;20055;-87
2021/08/13 09:12:16;;;;;;;6.10;5.15;;;;;;;33.57;31.28;101318.84;4943648;28;20439;-88
2021/08/13 09:14:43;;;;;;;5.00;4.60;;;;;;;34.13;31.00;101306.16;4949064;28;20079;-88
2021/08/13 09:17:10;;;;;;;8.95;4.90;;;;;;;34.41;30.04;101307.00;4945749;28;20680;-83
2021/08/13 09:19:46;;;;;;;5.78;5.30;;;;;;;34.40;30.08;101310.72;4930971;28;20051;-84
2021/08/13 09:22:17;;;;;;;5.13;4.63;;;;;;;34.79;29.84;101304.13;4927179;28;21065;-82
2021/08/13 09:24:49;;;;;;;4.57;4.17;;;;;;;35.15;29.36;101308.66;4931252;28;20061;-86
2021/08/13 09:27:34;;;;;;;6.18;4.90;;;;;;;35.24;28.97;101302.25;4932974;28;20301;-85
2021/08/13 09:30:17;;;;;;;6.97;4.50;;;;;;;35.29;28.92;101305.34;4943530;28;20051;-87
2021/08/13 09:33:04;;;;;;;7.82;5.03;;;;;;;35.33;28.89;101300.44;4966621;28;20063;-86
2021/08/13 09:35:42;;;;;;;5.57;4.97;;;;;;;35.25;29.09;101299.41;4931067;28;20517;-82
2021/08/13 09:38:15;;;;;;;5.20;4.70;;;;;;;35.18;29.24;101301.03;4951810;28;20050;-85
2021/08/13 09:40:45;;;;;;;4.65;4.35;;;;;;;34.76;30.15;101301.72;4946342;28;20066;-83
2021/08/13 09:43:12;;;;;;;5.22;4.68;;;;;;;34.70;30.24;101297.75;4950309;28;20050;-81
2021/08/13 09:45:39;;;;;;;5.05;4.63;;;;;;;35.00;29.61;101295.63;4961502;28;20063;-85
2021/08/13 09:48:06;;;;;;;5.13;4.72;;;;;;;35.63;28.47;101299.09;4946830;28;20055;-89
2021/08/13 09:50:40;;;;;;;4.88;4.47;;;;;;;36.24;27.76;101291.69;4935173;28;20667;-86
2021/08/13 09:53:16;;;;;;;5.55;5.05;;;;;;;36.58;26.61;101292.56;4950553;28;20057;-85
2021/08/13 09:55:44;;;;;;;4.53;4.20;;;;;;;36.46;27.05;101302.97;4935074;28;20065;-86
2021/08/13 09:58:11;;;;;;;4.53;4.22;;;;;;;36.56;27.28;101300.09;4960408;28;20050;-84
2021/08/13 10:00:46;;;;;;;5.90;5.35;;;;;;;35.92;27.29;101287.00;4959375;28;20088;-84
2021/08/13 10:03:15;;;;;;;6.88;4.85;;;;;;;36.07;27.87;101282.59;4945136;28;20077;-86
2021/08/13 10:06:42;;;;;;;;;;;;;;;;;;;;;
2021/08/13 10:09:30;;;;;;;4.82;4.50;;;;;;;36.32;26.92;101279.06;4917146;29;20058;-82
2021/08/13 10:12:07;;;;;;;4.70;4.20;;;;;;;36.24;26.48;101288.09;4931020;29;20693;-85
2021/08/13 10:14:40;;;;;;;5.20;4.70;;;;;;;36.19;27.09;101285.88;4947279;28;20694;-82
2021/08/13 10:17:18;;;;;;;;;;;;;;;35.98;26.53;101286.31;4962270;28;20055;-84
2021/08/13 10:19:48;;;;;;;4.60;4.20;;;;;;;36.09;26.75;101286.00;4949523;28;19926;-85
2021/08/13 10:22:18;;;;;;;6.45;4.50;;;;;;;36.46;26.28;101291.22;4930651;28;20047;-87
2021/08/13 10:24:46;;;;;;;5.03;4.45;;;;;;;36.70;25.64;101290.34;4961430;28;20032;-86
2021/08/13 10:27:15;;;;;;;5.57;4.68;;;;;;;36.38;26.09;101289.34;4945371;28;20055;-84
2021/08/13 10:29:47;;;;;;;4.88;4.38;;;;;;;36.04;26.60;101291.09;4945899;28;20043;-85
2021/08/13 10:32:27;;;;;;;5.22;4.75;;;;;;;35.49;27.12;101288.81;4969437;28;20142;-85
2021/08/13 10:34:53;;;;;;;6.40;5.50;;;;;;;34.61;28.29;101293.25;4932651;29;20051;-84
2021/08/13 10:37:26;;;;;;;4.88;4.35;;;;;;;33.82;29.51;101306.50;4964364;28;20043;-85
2021/08/13 10:39:58;;;;;;;;;;;;;;;33.56;29.86;101301.72;4944517;28;20056;-83
2021/08/13 10:42:27;;;;;;;3.47;3.15;;;;;;;33.89;29.50;101293.16;4918557;28;20284;-89
2021/08/13 10:45:05;;;;;;;4.95;4.45;;;;;;;34.09;29.22;101289.34;4949233;28;20062;-84
2021/08/13 10:47:42;;;;;;;5.32;4.60;;;;;;;34.99;28.48;101283.03;4937039;28;20423;-86
2021/08/13 10:50:09;;;;;;;4.40;4.00;;;;;;;35.96;27.45;101279.31;4969968;28;20055;-85
2021/08/13 10:52:40;;;;;;;4.93;4.45;;;;;;;36.72;26.01;101267.34;4959515;28;20094;-83
2021/08/13 10:55:09;;;;;;;5.50;4.47;;;;;;;37.15;25.70;101274.50;4942577;28;20396;-88
2021/08/13 10:57:50;;;;;;;4.25;3.95;;;;;;;36.90;25.32;101275.38;4961406;28;20099;-86
2021/08/13 11:00:20;;;;;;;5.32;4.15;;;;;;;36.87;25.88;101274.88;4964293;28;20108;-87
2021/08/13 11:03:17;;;;;;;4.65;4.25;;;;;;;36.84;25.85;101267.03;4940031;28;20582;-90
2021/08/13 11:05:59;;;;;;;8.07;5.00;;;;;;;36.49;26.29;101269.06;4939617;29;20178;-87
2021/08/13 11:08:40;;;;;;;5.05;4.55;;;;;;;37.07;26.07;101262.56;4944053;28;20173;-89
2021/08/13 11:11:11;;;;;;;4.75;4.18;;;;;;;37.93;25.33;101261.06;4958746;28;20094;-88
2021/08/13 11:13:48;;;;;;;4.95;4.45;;;;;;;36.95;25.57;101258.50;4975574;28;20050;-88
2021/08/13 11:16:31;;;;;;;5.00;4.07;;;;;;;36.30;25.95;101254.72;4970727;28;20047;-90
2021/08/13 11:19:06;;;;;;;4.63;4.22;;;;;;;36.05;26.38;101243.78;4945425;29;20058;-89
2021/08/13 11:21:46;;;;;;;4.80;4.40;;;;;;;35.53;27.03;101252.94;4928359;29;20589;-90
2021/08/13 11:24:25;;;;;;;5.32;4.47;;;;;;;35.21;27.70;101248.16;4958191;28;20102;-94
2021/08/13 11:26:53;;;;;;;5.18;4.68;;;;;;;34.37;28.97;101244.97;4962706;28;20059;-90
2021/08/13 11:29:33;;;;;;;5.10;4.40;;;;;;;34.09;29.24;101250.44;4948583;28;20050;-90
2021/08/13 11:32:19;;;;;;;5.03;4.68;;;;;;;34.32;29.00;101245.44;4957471;28;20118;-91
2021/08/13 11:35:09;;;;;;;8.50;4.68;;;;;;;33.57;30.33;101238.28;4948461;28;20454;-90
2021/08/13 11:37:51;;;;;;;6.55;4.32;;;;;;;33.04;30.75;101245.16;4926443;28;20043;-92
2021/08/13 11:40:18;;;;;;;5.18;4.35;;;;;;;32.97;31.64;101238.59;4957236;28;20102;-93
2021/08/13 11:43:12;;;;;;;8.68;4.97;;;;;;;32.94;31.51;101236.19;4961295;28;20058;-94
2021/08/13 11:45:43;;;;;;;4.65;4.00;;;;;;;33.11;30.93;101226.44;4959036;28;20054;-92